createdAt,value
2023-04-12T00:00:44.795Z,9.27
2023-04-12T00:05:48.213Z,9.90
2023-04-12T00:10:52.683Z,9.48
2023-04-12T00:15:55.604Z,7.15
2023-04-12T00:20:58.348Z,8.23
2023-04-12T00:26:02.450Z,8.05
2023-04-12T00:31:05.598Z,8.38
2023-04-12T00:36:10.552Z,9.40
2023-04-12T00:41:15.753Z,8.95
2023-04-12T00:46:19.838Z,6.63
2023-04-12T00:51:22.798Z,10.63
2023-04-12T00:56:28.380Z,7.80
2023-04-12T01:01:31.911Z,7.32
2023-04-12T01:06:46.516Z,6.57
2023-04-12T01:12:01.683Z,5.10
2023-04-12T01:17:08.244Z,8.85
2023-04-12T01:22:18.164Z,10.90
2023-04-12T01:27:35.726Z,9.98
2023-04-12T01:32:40.091Z,8.60
2023-04-12T01:37:43.565Z,11.38
2023-04-12T01:42:47.710Z,10.63
2023-04-12T01:47:50.590Z,7.90
2023-04-12T01:53:03.006Z,6.45
2023-04-12T01:58:11.689Z,7.63
2023-04-12T02:03:15.210Z,8.23
2023-04-12T02:08:18.385Z,6.07
2023-04-12T02:13:23.393Z,7.20
2023-04-12T02:18:26.246Z,8.80
2023-04-12T02:23:29.193Z,8.20
2023-04-12T02:28:34.645Z,6.00
2023-04-12T02:33:37.606Z,7.88
2023-04-12T02:38:44.847Z,7.90
2023-04-12T02:43:49.469Z,9.52
2023-04-12T02:48:52.764Z,11.02
2023-04-12T02:53:57.986Z,10.27
2023-04-12T02:59:06.865Z,9.18
2023-04-12T03:04:32.984Z,7.93
2023-04-12T03:09:38.613Z,13.13
2023-04-12T03:14:43.396Z,7.10
2023-04-12T03:19:46.354Z,6.10
2023-04-12T03:24:55.619Z,6.65
2023-04-12T03:30:00.426Z,6.45
2023-04-12T03:35:04.565Z,5.80
2023-04-12T03:40:09.277Z,9.40
2023-04-12T03:45:13.866Z,8.57
2023-04-12T03:50:20.690Z,7.05
2023-04-12T03:55:30.178Z,6.13
2023-04-12T04:00:37.258Z,4.18
2023-04-12T04:05:44.080Z,4.82
2023-04-12T04:10:47.841Z,5.25
2023-04-12T04:15:59.846Z,7.35
2023-04-12T04:26:10.815Z,1.70
2023-04-12T04:31:22.366Z,7.20
2023-04-12T04:36:26.623Z,9.00
2023-04-12T04:41:34.625Z,4.85
2023-04-12T04:46:39.657Z,8.00
2023-04-12T04:51:42.540Z,5.80
2023-04-12T04:56:48.930Z,11.38
2023-04-12T05:01:55.037Z,8.50
2023-04-12T05:06:57.869Z,3.90
2023-04-12T05:12:02.345Z,4.50
2023-04-12T05:17:07.185Z,4.30
2023-04-12T05:22:09.918Z,5.75
2023-04-12T05:27:13.386Z,9.45
2023-04-12T05:32:17.601Z,9.52
2023-04-12T05:37:20.444Z,2.90
2023-04-12T05:42:23.220Z,7.78
2023-04-12T05:47:27.386Z,5.60
2023-04-12T05:52:33.102Z,7.13
2023-04-12T05:57:36.724Z,5.93
2023-04-12T06:02:41.749Z,5.10
2023-04-12T06:07:46.918Z,3.38
2023-04-12T06:12:49.837Z,4.63
2023-04-12T06:17:55.745Z,5.57
2023-04-12T06:22:58.527Z,4.45
2023-04-12T06:28:01.738Z,3.92
2023-04-12T06:33:06.123Z,6.13
2023-04-12T06:38:09.026Z,5.95
2023-04-12T06:43:11.770Z,4.55
2023-04-12T06:48:15.990Z,3.85
2023-04-12T06:53:18.813Z,2.10
2023-04-12T06:58:21.605Z,6.45
2023-04-12T07:03:28.381Z,1.58
2023-04-12T07:08:31.376Z,3.83
2023-04-12T07:13:34.094Z,2.60
2023-04-12T07:18:40.209Z,4.50
2023-04-12T07:23:43.238Z,5.25
2023-04-12T07:28:46.322Z,3.65
2023-04-12T07:33:50.766Z,4.28
2023-04-12T07:38:55.676Z,3.95
2023-04-12T07:43:58.830Z,2.70
2023-04-12T07:49:03.588Z,5.35
2023-04-12T07:54:06.380Z,4.15
2023-04-12T07:59:09.164Z,6.28
2023-04-12T08:04:13.485Z,4.88
2023-04-12T08:09:16.457Z,9.27
2023-04-12T08:14:19.213Z,3.88
2023-04-12T08:19:23.293Z,4.22
2023-04-12T08:24:25.977Z,2.80
2023-04-12T08:34:33.082Z,4.43
2023-04-12T08:39:35.762Z,3.40
2023-04-12T08:49:43.468Z,3.20
2023-04-12T08:54:46.142Z,5.38
2023-04-12T09:04:55.577Z,5.47
2023-04-12T09:09:59.658Z,2.78
2023-04-12T09:15:10.018Z,2.47
2023-04-12T09:20:26.161Z,3.97
2023-04-12T09:25:48.361Z,2.97
2023-04-12T09:30:53.285Z,2.67
2023-04-12T09:36:01.539Z,3.05
2023-04-12T09:41:18.979Z,1.30
2023-04-12T09:46:23.692Z,1.35
2023-04-12T09:51:29.448Z,3.15
2023-04-12T09:56:34.307Z,2.45
2023-04-12T10:01:40.022Z,1.75
2023-04-12T10:06:45.894Z,0.60
2023-04-12T10:11:51.961Z,1.45
2023-04-12T10:16:57.981Z,1.17
2023-04-12T10:22:02.811Z,3.35
2023-04-12T10:27:06.706Z,1.20
2023-04-12T10:32:23.167Z,4.00
2023-04-12T10:37:59.078Z,2.53
2023-04-12T10:43:27.698Z,0.88
2023-04-12T10:48:32.240Z,1.20
2023-04-12T10:53:36.371Z,1.30
2023-04-12T10:58:57.313Z,1.40
2023-04-12T11:04:25.138Z,0.73
2023-04-12T11:09:44.174Z,0.77
2023-04-12T11:15:08.034Z,1.48
2023-04-12T11:20:28.330Z,0.90
2023-04-12T11:25:32.868Z,0.85
2023-04-12T11:30:35.610Z,1.70
2023-04-12T11:35:38.383Z,0.40
2023-04-12T11:40:43.613Z,0.98
2023-04-12T11:45:46.449Z,2.45
2023-04-12T11:50:59.858Z,0.82
2023-04-12T11:56:12.343Z,1.23
2023-04-12T12:01:15.713Z,1.65
2023-04-12T12:06:19.484Z,2.60
2023-04-12T12:11:24.689Z,2.50
2023-04-12T12:16:29.134Z,1.30
2023-04-12T12:21:32.474Z,0.82
2023-04-12T12:26:37.183Z,0.95
2023-04-12T12:31:47.510Z,1.10
2023-04-12T12:36:56.726Z,1.20
2023-04-12T12:42:02.721Z,1.20
2023-04-12T12:47:13.894Z,1.10
2023-04-12T12:52:17.961Z,1.40
2023-04-12T12:57:22.272Z,1.02
2023-04-12T13:02:25.272Z,1.00
2023-04-12T13:07:28.326Z,0.75
2023-04-12T13:12:32.528Z,0.95
2023-04-12T13:17:35.647Z,1.30
2023-04-12T13:22:38.458Z,1.80
2023-04-12T13:27:42.600Z,1.90
2023-04-12T13:32:45.692Z,2.50
2023-04-12T13:37:48.487Z,2.13
2023-04-12T13:42:52.633Z,2.40
2023-04-12T13:47:55.773Z,2.17
2023-04-12T13:52:58.637Z,2.38
2023-04-12T13:58:02.881Z,1.90
2023-04-12T14:03:05.739Z,2.28
2023-04-12T14:08:08.558Z,2.53
2023-04-12T14:13:13.048Z,2.53
2023-04-12T14:18:15.844Z,2.33
2023-04-12T14:23:18.783Z,2.50
2023-04-12T14:28:24.237Z,3.65
2023-04-12T14:33:27.025Z,3.20
2023-04-12T14:38:29.753Z,3.15
2023-04-12T14:43:33.867Z,2.80
2023-04-12T14:48:36.683Z,3.10
2023-04-12T14:53:39.536Z,3.35
2023-04-12T14:58:43.817Z,3.45
2023-04-12T15:03:47.558Z,4.80
2023-04-12T15:08:54.962Z,5.15
2023-04-12T15:13:59.715Z,5.28
2023-04-12T15:19:10.325Z,5.82
2023-04-12T15:24:16.426Z,5.60
2023-04-12T15:29:22.232Z,5.32
2023-04-12T15:34:25.244Z,4.80
2023-04-12T15:39:28.287Z,4.97
2023-04-12T15:44:32.538Z,4.72
2023-04-12T15:49:35.890Z,4.90
2023-04-12T15:54:43.588Z,3.63
2023-04-12T15:59:49.586Z,3.72
2023-04-12T16:04:55.987Z,4.00
2023-04-12T16:09:58.885Z,2.20
2023-04-12T16:15:03.201Z,1.73
2023-04-12T16:20:07.723Z,1.75
2023-04-12T16:25:11.948Z,1.67
2023-04-12T16:30:17.021Z,2.40
2023-04-12T16:35:19.849Z,2.67
2023-04-12T16:40:24.441Z,4.72
2023-04-12T16:45:28.630Z,7.05
2023-04-12T16:50:31.413Z,4.70
2023-04-12T16:55:34.455Z,4.15
2023-04-12T17:00:38.994Z,5.50
2023-04-12T17:05:42.312Z,9.55
2023-04-12T17:10:45.145Z,10.52
2023-04-12T17:15:49.292Z,5.68
2023-04-12T17:20:52.085Z,4.82
2023-04-12T17:25:54.927Z,4.93
2023-04-12T17:30:59.059Z,4.32
2023-04-12T17:36:02.524Z,6.57
2023-04-12T17:41:06.062Z,4.22
2023-04-12T17:46:10.178Z,8.68
2023-04-12T17:51:13.041Z,5.22
2023-04-12T17:56:15.825Z,6.68
2023-04-12T18:01:19.984Z,7.40
2023-04-12T18:06:23.766Z,12.27
2023-04-12T18:11:26.550Z,6.80
2023-04-12T18:16:31.841Z,7.82
2023-04-12T18:21:35.514Z,5.85
2023-04-12T18:26:38.296Z,9.75
2023-04-12T18:31:43.343Z,9.27
2023-04-12T18:36:46.345Z,9.35
2023-04-12T18:41:49.125Z,11.80
2023-04-12T18:46:53.240Z,13.00
2023-04-12T18:51:58.123Z,7.00
2023-04-12T18:57:03.339Z,11.60
2023-04-12T19:02:07.756Z,17.10
2023-04-12T19:07:10.714Z,8.07
2023-04-12T19:12:13.435Z,7.68
2023-04-12T19:17:17.574Z,10.95
2023-04-12T19:22:20.373Z,12.50
2023-04-12T19:27:23.664Z,8.88
2023-04-12T19:32:29.038Z,15.65
2023-04-12T19:37:34.113Z,11.38
2023-04-12T19:42:37.091Z,13.93
2023-04-12T19:47:44.821Z,9.63
2023-04-12T19:52:48.870Z,13.15
2023-04-12T19:57:51.857Z,11.77
2023-04-12T20:02:56.229Z,12.50
2023-04-12T20:07:59.016Z,14.13
2023-04-12T20:13:01.800Z,12.43
2023-04-12T20:18:06.783Z,10.75
2023-04-12T20:23:09.591Z,10.52
2023-04-12T20:28:13.440Z,10.90
2023-04-12T20:33:17.673Z,16.60
2023-04-12T20:38:20.455Z,12.23
2023-04-12T20:43:23.324Z,10.95
2023-04-12T20:48:27.583Z,18.85
2023-04-12T20:53:30.378Z,10.43
2023-04-12T20:58:34.865Z,9.93
2023-04-12T21:03:40.726Z,10.95
2023-04-12T21:08:44.497Z,10.60
2023-04-12T21:13:47.271Z,9.75
2023-04-12T21:18:53.201Z,10.75
2023-04-12T21:23:56.109Z,12.50
2023-04-12T21:28:59.210Z,12.10
2023-04-12T21:34:03.830Z,8.88
2023-04-12T21:39:07.684Z,13.00
2023-04-12T21:44:12.446Z,11.60
2023-04-12T21:49:16.561Z,8.38
2023-04-12T21:54:20.322Z,12.90
2023-04-12T21:59:23.481Z,12.15
2023-04-12T22:04:27.607Z,8.25
2023-04-12T22:09:30.390Z,14.75
2023-04-12T22:14:33.846Z,13.60
2023-04-12T22:19:38.008Z,16.55
2023-04-12T22:24:40.813Z,21.58
2023-04-12T22:29:43.688Z,14.90
2023-04-12T22:34:52.237Z,17.88
2023-04-12T22:40:01.986Z,20.08
2023-04-12T22:45:07.351Z,21.67
2023-04-12T22:50:12.659Z,19.23
2023-04-12T22:55:17.050Z,14.02
2023-04-12T23:00:19.834Z,12.43
2023-04-12T23:05:25.019Z,17.17
2023-04-12T23:10:28.118Z,10.98
2023-04-12T23:15:31.641Z,14.23
2023-04-12T23:20:36.897Z,11.55
2023-04-12T23:25:40.045Z,12.80
2023-04-12T23:30:44.700Z,11.93
2023-04-12T23:35:52.250Z,11.15
2023-04-12T23:40:55.592Z,10.15
2023-04-12T23:45:58.424Z,6.82
2023-04-12T23:51:02.951Z,12.13
2023-04-12T23:56:06.796Z,6.93
